createdAt,value
2018-09-15T00:01:18.434Z,16.80
2018-09-15T00:04:22.061Z,16.63
2018-09-15T00:07:25.808Z,17.10
2018-09-15T00:10:29.431Z,17.20
2018-09-15T00:13:33.096Z,16.60
2018-09-15T00:16:36.815Z,17.60
2018-09-15T00:19:40.478Z,18.03
2018-09-15T00:22:44.230Z,16.70
2018-09-15T00:25:47.900Z,18.40
2018-09-15T00:28:51.533Z,17.20
2018-09-15T00:31:55.277Z,18.53
2018-09-15T00:34:58.896Z,18.13
2018-09-15T00:38:02.599Z,17.13
2018-09-15T00:41:06.364Z,17.07
2018-09-15T00:44:10.021Z,16.10
2018-09-15T00:47:13.640Z,17.80
2018-09-15T00:50:17.300Z,16.80
2018-09-15T00:53:20.916Z,16.30
2018-09-15T00:56:24.479Z,17.17
2018-09-15T00:59:28.167Z,17.77
2018-09-15T01:02:31.801Z,18.10
2018-09-15T01:05:35.587Z,19.03
2018-09-15T01:08:39.214Z,19.10
2018-09-15T01:11:43.171Z,17.70
2018-09-15T01:14:46.834Z,18.70
2018-09-15T01:17:50.534Z,20.77
2018-09-15T01:20:54.207Z,18.80
2018-09-15T01:23:57.799Z,20.20
2018-09-15T01:27:01.464Z,18.10
2018-09-15T01:30:05.242Z,19.03
2018-09-15T01:33:09.006Z,17.80
2018-09-15T01:36:12.821Z,17.80
2018-09-15T01:39:16.454Z,16.77
2018-09-15T01:42:20.070Z,15.80
2018-09-15T01:45:23.955Z,16.30
2018-09-15T01:48:27.614Z,15.20
2018-09-15T01:51:31.354Z,14.70
2018-09-15T01:54:35.063Z,14.37
2018-09-15T01:57:38.852Z,12.80
2018-09-15T02:00:42.804Z,13.60
2018-09-15T02:03:46.630Z,12.87
2018-09-15T02:06:50.590Z,12.50
2018-09-15T02:09:54.227Z,12.40
2018-09-15T02:12:58.005Z,11.80
2018-09-15T02:16:01.734Z,12.30
2018-09-15T02:19:05.375Z,11.73
2018-09-15T02:22:09.056Z,11.00
2018-09-15T02:25:12.642Z,11.70
2018-09-15T02:28:16.219Z,10.00
2018-09-15T02:31:19.969Z,10.20
2018-09-15T02:34:23.629Z,9.83
2018-09-15T02:37:27.382Z,9.40
2018-09-15T02:40:31.032Z,9.57
2018-09-15T02:43:34.700Z,9.30
2018-09-15T02:46:38.376Z,8.20
2018-09-15T02:49:41.999Z,8.00
2018-09-15T02:52:45.692Z,9.43
2018-09-15T02:55:49.326Z,8.40
2018-09-15T02:58:52.935Z,7.77
2018-09-15T03:01:56.664Z,8.07
2018-09-15T03:05:00.342Z,8.10
2018-09-15T03:08:04.033Z,8.30
2018-09-15T03:11:07.771Z,7.43
2018-09-15T03:14:11.414Z,7.80
2018-09-15T03:17:15.126Z,7.77
2018-09-15T03:20:18.821Z,7.50
2018-09-15T03:23:22.500Z,7.50
2018-09-15T03:26:26.099Z,7.30
2018-09-15T03:29:29.871Z,7.80
2018-09-15T03:32:33.533Z,7.83
2018-09-15T03:35:37.171Z,8.07
2018-09-15T03:38:40.847Z,8.20
2018-09-15T03:41:44.625Z,6.73
2018-09-15T03:44:48.133Z,7.40
2018-09-15T03:47:51.856Z,7.33
2018-09-15T03:50:55.425Z,7.73
2018-09-15T03:53:59.237Z,7.20
2018-09-15T03:57:02.915Z,8.43
2018-09-15T04:00:06.856Z,8.70
2018-09-15T04:03:10.593Z,8.80
2018-09-15T04:06:14.446Z,9.20
2018-09-15T04:09:18.159Z,8.60
2018-09-15T04:12:21.849Z,9.77
2018-09-15T04:15:25.756Z,9.60
2018-09-15T04:18:29.509Z,9.20
2018-09-15T04:21:33.291Z,9.60
2018-09-15T04:24:37.103Z,9.83
2018-09-15T04:27:41.055Z,10.27
2018-09-15T04:30:44.841Z,10.53
2018-09-15T04:33:48.830Z,10.00
2018-09-15T04:36:52.529Z,9.50
2018-09-15T04:39:56.249Z,10.50
2018-09-15T04:43:00.155Z,12.43
2018-09-15T04:46:03.900Z,10.20
2018-09-15T04:49:07.528Z,11.03
2018-09-15T04:52:11.381Z,11.50
2018-09-15T04:55:15.138Z,12.20
2018-09-15T04:58:18.946Z,11.23
2018-09-15T05:01:22.589Z,11.47
2018-09-15T05:04:26.177Z,11.23
2018-09-15T05:07:29.870Z,10.90
2018-09-15T05:10:33.549Z,11.00
2018-09-15T05:13:37.321Z,10.83
2018-09-15T05:16:41.079Z,11.70
2018-09-15T05:19:44.742Z,12.40
2018-09-15T05:22:48.520Z,12.10
2018-09-15T05:25:52.115Z,11.90
2018-09-15T05:28:55.977Z,11.83
2018-09-15T05:31:59.821Z,11.70
2018-09-15T05:35:03.621Z,12.90
2018-09-15T05:38:07.236Z,12.27
2018-09-15T05:41:11.965Z,13.43
2018-09-15T05:44:15.622Z,13.17
2018-09-15T05:47:19.299Z,13.27
2018-09-15T05:50:23.040Z,12.93
2018-09-15T05:53:27.138Z,13.50
2018-09-15T05:56:30.989Z,13.00
2018-09-15T05:59:34.913Z,15.10
2018-09-15T06:02:38.745Z,13.20
2018-09-15T06:05:42.556Z,13.83
2018-09-15T06:08:46.310Z,13.83
2018-09-15T06:11:50.030Z,13.67
2018-09-15T06:14:53.724Z,13.37
2018-09-15T06:17:57.541Z,12.77
2018-09-15T06:21:01.211Z,13.73
2018-09-15T06:24:05.475Z,13.50
2018-09-15T06:27:09.275Z,13.13
2018-09-15T06:30:13.105Z,13.67
2018-09-15T06:33:16.825Z,12.67
2018-09-15T06:36:20.728Z,12.70
2018-09-15T06:39:24.310Z,13.40
2018-09-15T06:42:28.121Z,13.20
2018-09-15T06:45:31.805Z,13.67
2018-09-15T06:48:35.454Z,13.60
2018-09-15T06:51:39.419Z,12.60
2018-09-15T06:54:43.135Z,14.40
2018-09-15T06:57:49.382Z,13.30
2018-09-15T07:00:53.106Z,12.57
2018-09-15T07:03:56.909Z,12.80
2018-09-15T07:07:00.668Z,13.60
2018-09-15T07:10:04.280Z,14.57
2018-09-15T07:13:08.204Z,13.10
2018-09-15T07:16:11.825Z,13.20
2018-09-15T07:19:15.584Z,12.20
2018-09-15T07:22:19.295Z,11.60
2018-09-15T07:25:23.515Z,12.20
2018-09-15T07:28:28.581Z,10.73
2018-09-15T07:31:32.323Z,12.00
2018-09-15T07:34:36.077Z,10.57
2018-09-15T07:37:43.356Z,12.40
2018-09-15T07:40:49.507Z,11.23
2018-09-15T07:43:53.311Z,13.10
2018-09-15T07:46:57.015Z,11.67
2018-09-15T07:50:00.755Z,12.23
2018-09-15T07:53:06.895Z,10.80
2018-09-15T07:56:10.814Z,11.13
2018-09-15T07:59:18.908Z,11.27
2018-09-15T08:02:24.754Z,11.03
2018-09-15T08:05:28.544Z,11.00
2018-09-15T08:08:32.134Z,10.30
2018-09-15T08:11:35.901Z,9.90
2018-09-15T08:14:39.705Z,10.00
2018-09-15T08:17:43.586Z,9.87
2018-09-15T08:20:47.227Z,9.90
2018-09-15T08:23:51.071Z,10.17
2018-09-15T08:26:54.709Z,8.80
2018-09-15T08:29:58.421Z,9.07
2018-09-15T08:33:02.127Z,8.80
2018-09-15T08:36:05.995Z,9.23
2018-09-15T08:39:10.280Z,8.43
2018-09-15T08:42:14.107Z,7.97
2018-09-15T08:45:18.371Z,9.00
2018-09-15T08:48:22.133Z,7.83
2018-09-15T08:51:32.122Z,7.83
2018-09-15T08:54:35.836Z,7.73
2018-09-15T08:57:39.460Z,8.23
2018-09-15T09:00:43.192Z,8.83
2018-09-15T09:03:46.923Z,8.47
2018-09-15T09:06:50.623Z,8.13
2018-09-15T09:09:54.310Z,7.93
2018-09-15T09:12:58.067Z,8.00
2018-09-15T09:16:01.891Z,8.60
2018-09-15T09:19:05.691Z,8.00
2018-09-15T09:22:09.427Z,7.90
2018-09-15T09:25:13.162Z,7.53
2018-09-15T09:28:16.881Z,7.23
2018-09-15T09:31:20.689Z,7.00
2018-09-15T09:34:24.490Z,6.67
2018-09-15T09:37:28.205Z,6.60
2018-09-15T09:40:31.926Z,6.90
2018-09-15T09:43:35.631Z,6.90
2018-09-15T09:46:39.313Z,6.90
2018-09-15T09:49:42.965Z,7.10
2018-09-15T09:52:46.734Z,7.40
2018-09-15T09:55:50.882Z,7.77
2018-09-15T09:58:54.601Z,7.30
2018-09-15T10:02:01.415Z,7.53
2018-09-15T10:05:05.195Z,7.60
2018-09-15T10:08:08.815Z,6.33
2018-09-15T10:11:12.581Z,7.60
2018-09-15T10:14:16.365Z,6.73
2018-09-15T10:17:20.171Z,7.57
2018-09-15T10:20:23.873Z,6.20
2018-09-15T10:23:27.608Z,6.87
2018-09-15T10:26:31.439Z,6.30
2018-09-15T10:29:35.184Z,6.10
2018-09-15T10:32:38.840Z,6.60
2018-09-15T10:35:42.659Z,6.60
2018-09-15T10:38:46.450Z,5.80
2018-09-15T10:41:50.201Z,5.70
2018-09-15T10:44:53.856Z,6.43
2018-09-15T10:47:57.651Z,6.43
2018-09-15T10:51:01.306Z,5.90
2018-09-15T10:54:05.029Z,6.00
2018-09-15T10:57:08.794Z,5.83
2018-09-15T11:00:12.482Z,6.20
2018-09-15T11:03:16.189Z,6.57
2018-09-15T11:06:20.064Z,6.17
2018-09-15T11:09:23.779Z,5.30
2018-09-15T11:12:27.581Z,5.53
2018-09-15T11:15:31.352Z,5.80
2018-09-15T11:18:35.170Z,4.90
2018-09-15T11:21:38.839Z,5.20
2018-09-15T11:24:42.546Z,5.40
2018-09-15T11:27:46.357Z,5.47
2018-09-15T11:30:50.608Z,6.00
2018-09-15T11:33:54.266Z,6.30
2018-09-15T11:36:58.069Z,5.93
2018-09-15T11:40:01.809Z,6.00
2018-09-15T11:43:05.889Z,6.40
2018-09-15T11:46:09.604Z,5.20
2018-09-15T11:49:13.306Z,6.50
2018-09-15T11:52:17.158Z,6.63
2018-09-15T11:55:20.915Z,6.40
2018-09-15T11:58:24.710Z,5.83
2018-09-15T12:01:28.520Z,5.70
2018-09-15T12:04:32.466Z,5.40
2018-09-15T12:07:36.145Z,5.83
2018-09-15T12:10:39.819Z,5.30
2018-09-15T12:13:43.780Z,5.77
2018-09-15T12:16:47.510Z,5.47
2018-09-15T12:19:51.255Z,4.57
2018-09-15T12:22:54.944Z,4.30
2018-09-15T12:25:58.688Z,4.60
2018-09-15T12:29:02.483Z,4.83
2018-09-15T12:32:06.529Z,4.37
2018-09-15T12:35:10.244Z,5.00
2018-09-15T12:38:14.060Z,4.20
2018-09-15T12:41:18.126Z,4.60
2018-09-15T12:44:21.891Z,4.83
2018-09-15T12:47:25.558Z,5.10
2018-09-15T12:50:29.530Z,4.97
2018-09-15T12:53:33.226Z,4.40
2018-09-15T12:56:36.928Z,4.90
2018-09-15T12:59:40.671Z,4.97
2018-09-15T13:02:44.357Z,5.57
2018-09-15T13:05:48.285Z,5.10
2018-09-15T13:08:52.024Z,4.50
2018-09-15T13:11:55.711Z,5.00
2018-09-15T13:14:59.411Z,4.90
2018-09-15T13:18:03.147Z,4.70
2018-09-15T13:21:06.822Z,5.10
2018-09-15T13:24:10.460Z,4.87
2018-09-15T13:27:14.132Z,5.00
2018-09-15T13:30:18.129Z,5.83
2018-09-15T13:33:21.707Z,5.33
2018-09-15T13:36:25.655Z,5.00
2018-09-15T13:39:29.385Z,6.70
2018-09-15T13:42:33.156Z,6.47
2018-09-15T13:45:36.839Z,6.70
2018-09-15T13:48:40.652Z,6.70
2018-09-15T13:51:44.552Z,5.90
2018-09-15T13:54:48.226Z,6.20
2018-09-15T13:57:52.149Z,5.77
2018-09-15T14:00:55.908Z,6.00
2018-09-15T14:03:59.689Z,5.30
2018-09-15T14:07:04.755Z,5.37
2018-09-15T14:10:08.626Z,5.10
2018-09-15T14:13:12.380Z,4.70
2018-09-15T14:19:32.326Z,5.70
2018-09-15T14:22:36.066Z,4.67
2018-09-15T14:25:39.872Z,4.50
2018-09-15T14:28:44.301Z,5.27
2018-09-15T14:31:52.253Z,4.60
2018-09-15T14:34:55.910Z,5.07
2018-09-15T14:37:59.629Z,4.97
2018-09-15T14:41:03.544Z,4.70
2018-09-15T14:44:07.341Z,3.90
2018-09-15T14:47:10.980Z,4.40
2018-09-15T14:50:14.859Z,4.60
2018-09-15T14:53:18.611Z,4.93
2018-09-15T14:56:22.306Z,4.67
2018-09-15T14:59:26.673Z,5.00
2018-09-15T15:02:31.145Z,4.20
2018-09-15T15:05:34.881Z,4.23
2018-09-15T15:08:39.800Z,5.30
2018-09-15T15:11:44.300Z,4.03
2018-09-15T15:14:47.976Z,4.00
2018-09-15T15:17:52.838Z,3.67
2018-09-15T15:20:56.664Z,3.93
2018-09-15T15:24:00.350Z,3.67
2018-09-15T15:27:04.083Z,4.20
2018-09-15T15:30:08.158Z,4.30
2018-09-15T15:33:11.819Z,4.23
2018-09-15T15:36:15.688Z,4.20
2018-09-15T15:39:21.295Z,4.10
2018-09-15T15:42:24.989Z,4.20
2018-09-15T15:45:29.721Z,4.20
2018-09-15T15:48:35.008Z,5.80
2018-09-15T15:51:38.905Z,6.17
2018-09-15T15:54:42.734Z,5.43
2018-09-15T15:57:46.429Z,4.70
2018-09-15T16:00:50.415Z,4.30
2018-09-15T16:03:54.137Z,4.20
2018-09-15T16:06:57.943Z,4.57
2018-09-15T16:10:01.681Z,4.23
2018-09-15T16:13:05.529Z,5.03
2018-09-15T16:16:09.319Z,5.17
2018-09-15T16:19:13.893Z,5.57
2018-09-15T16:22:17.603Z,4.73
2018-09-15T16:25:21.243Z,4.47
2018-09-15T16:28:25.310Z,4.10
2018-09-15T16:31:29.140Z,4.23
2018-09-15T16:34:33.248Z,4.50
2018-09-15T16:37:37.049Z,4.03
2018-09-15T16:40:41.090Z,4.07
2018-09-15T16:43:44.945Z,4.37
2018-09-15T16:46:48.657Z,4.90
2018-09-15T16:49:52.379Z,4.50
2018-09-15T16:52:56.210Z,4.20
2018-09-15T16:55:59.853Z,4.20
2018-09-15T16:59:03.653Z,3.87
2018-09-15T17:02:07.405Z,4.23
2018-09-15T17:05:11.243Z,4.60
2018-09-15T17:08:14.998Z,4.00
2018-09-15T17:11:18.728Z,4.73
2018-09-15T17:14:22.566Z,4.30
2018-09-15T17:17:26.245Z,3.40
2018-09-15T17:20:29.991Z,3.40
2018-09-15T17:23:37.740Z,3.40
2018-09-15T17:26:41.638Z,2.87
2018-09-15T17:29:45.595Z,2.80
2018-09-15T17:32:49.599Z,2.90
2018-09-15T17:35:53.303Z,2.77
2018-09-15T17:38:57.029Z,3.17
2018-09-15T17:42:00.819Z,3.57
2018-09-15T17:45:04.693Z,4.00
2018-09-15T17:48:08.516Z,3.77
2018-09-15T17:51:15.989Z,3.60
2018-09-15T17:54:19.796Z,3.30
2018-09-15T17:57:23.480Z,3.97
2018-09-15T18:00:27.329Z,3.90
2018-09-15T18:03:31.032Z,3.60
2018-09-15T18:06:34.720Z,3.70
2018-09-15T18:09:38.468Z,3.57
2018-09-15T18:12:42.235Z,3.10
2018-09-15T18:15:45.982Z,4.10
2018-09-15T18:18:49.735Z,4.10
2018-09-15T18:21:53.634Z,4.13
2018-09-15T18:24:57.268Z,3.50
2018-09-15T18:28:00.929Z,3.50
2018-09-15T18:31:04.642Z,3.50
2018-09-15T18:34:08.472Z,3.73
2018-09-15T18:37:12.261Z,3.53
2018-09-15T18:40:16.309Z,3.60
2018-09-15T18:43:20.126Z,3.73
2018-09-15T18:46:23.948Z,3.33
2018-09-15T18:49:27.685Z,3.87
2018-09-15T18:52:31.538Z,3.83
2018-09-15T18:55:36.074Z,3.57
2018-09-15T18:58:40.310Z,3.90
2018-09-15T19:01:44.121Z,3.70
2018-09-15T19:04:47.916Z,3.57
2018-09-15T19:07:51.535Z,3.53
2018-09-15T19:10:55.383Z,4.40
2018-09-15T19:13:59.109Z,3.70
2018-09-15T19:17:02.957Z,3.73
2018-09-15T19:20:06.922Z,4.30
2018-09-15T19:23:10.525Z,3.87
2018-09-15T19:26:14.412Z,3.30
2018-09-15T19:29:18.072Z,3.90
2018-09-15T19:32:21.762Z,4.17
2018-09-15T19:35:25.690Z,3.73
2018-09-15T19:38:29.540Z,4.20
2018-09-15T19:41:33.338Z,3.90
2018-09-15T19:44:37.841Z,3.93
2018-09-15T19:47:41.481Z,4.13
2018-09-15T19:50:45.210Z,3.63
2018-09-15T19:53:48.944Z,4.17
2018-09-15T19:56:52.893Z,4.20
2018-09-15T19:59:56.680Z,3.70
2018-09-15T20:03:00.566Z,4.00
2018-09-15T20:06:04.352Z,3.97
2018-09-15T20:09:09.314Z,4.30
2018-09-15T20:12:13.136Z,4.43
2018-09-15T20:15:23.915Z,5.07
2018-09-15T20:18:26.291Z,4.10
2018-09-15T20:21:28.611Z,3.97
2018-09-15T20:24:32.447Z,4.80
2018-09-15T20:27:36.125Z,4.60
2018-09-15T20:30:39.966Z,4.63
2018-09-15T20:33:43.856Z,4.43
2018-09-15T20:36:47.589Z,5.23
2018-09-15T20:39:51.304Z,4.47
2018-09-15T20:42:55.101Z,5.00
2018-09-15T20:45:58.885Z,5.10
2018-09-15T20:49:02.658Z,5.63
2018-09-15T20:52:06.725Z,4.97
2018-09-15T20:55:10.463Z,5.70
2018-09-15T20:58:14.256Z,5.70
2018-09-15T21:01:17.955Z,6.10
2018-09-15T21:04:21.583Z,5.67
2018-09-15T21:07:25.305Z,5.57
2018-09-15T21:10:29.135Z,5.63
2018-09-15T21:13:32.801Z,6.37
2018-09-15T21:16:36.709Z,6.50
2018-09-15T21:19:40.485Z,6.37
2018-09-15T21:22:44.109Z,6.70
2018-09-15T21:25:47.875Z,7.27
2018-09-15T21:28:51.658Z,6.70
2018-09-15T21:31:55.423Z,6.00
2018-09-15T21:34:59.115Z,5.50
2018-09-15T21:38:02.716Z,5.60
2018-09-15T21:41:06.913Z,5.70
2018-09-15T21:44:10.621Z,5.70
2018-09-15T21:47:14.384Z,5.53
2018-09-15T21:50:18.013Z,5.63
2018-09-15T21:53:21.680Z,5.33
2018-09-15T21:56:25.384Z,5.10
2018-09-15T21:59:30.799Z,5.23
2018-09-15T22:02:34.780Z,5.90
2018-09-15T22:05:38.440Z,5.87
2018-09-15T22:08:42.099Z,5.47
2018-09-15T22:11:45.803Z,5.40
2018-09-15T22:14:49.496Z,6.17
2018-09-15T22:17:54.312Z,6.40
2018-09-15T22:20:58.030Z,6.20
2018-09-15T22:24:01.709Z,6.50
2018-09-15T22:27:05.575Z,6.00
2018-09-15T22:30:09.457Z,6.97
2018-09-15T22:33:13.235Z,6.60
2018-09-15T22:36:16.898Z,6.57
2018-09-15T22:39:20.610Z,6.53
2018-09-15T22:42:24.355Z,6.77
2018-09-15T22:45:28.947Z,7.60
2018-09-15T22:48:32.714Z,6.67
2018-09-15T22:51:36.445Z,6.53
2018-09-15T22:54:40.258Z,7.23
2018-09-15T22:57:43.928Z,7.27
2018-09-15T23:00:47.534Z,6.80
2018-09-15T23:03:53.910Z,6.60
2018-09-15T23:06:57.599Z,6.77
2018-09-15T23:10:01.202Z,6.00
2018-09-15T23:13:04.867Z,6.60
2018-09-15T23:16:08.559Z,6.77
2018-09-15T23:19:12.284Z,6.70
2018-09-15T23:22:15.869Z,6.50
2018-09-15T23:25:19.469Z,6.80
2018-09-15T23:28:23.216Z,6.60
2018-09-15T23:31:26.923Z,6.60
2018-09-15T23:34:30.517Z,7.57
2018-09-15T23:37:34.199Z,6.57
2018-09-15T23:40:37.882Z,7.00
2018-09-15T23:43:41.579Z,7.93
2018-09-15T23:46:45.228Z,7.80
2018-09-15T23:49:48.867Z,6.63
2018-09-15T23:52:52.578Z,7.03
2018-09-15T23:55:56.216Z,7.93
2018-09-15T23:59:00.062Z,7.90
